createdAt,value
2018-04-23T00:00:40.169Z,53.08
2018-04-23T00:03:06.637Z,53.04
2018-04-23T00:05:33.139Z,52.72
2018-04-23T00:07:59.503Z,52.77
2018-04-23T00:10:25.975Z,52.60
2018-04-23T00:12:52.374Z,52.54
2018-04-23T00:15:18.717Z,52.59
2018-04-23T00:17:45.101Z,52.71
2018-04-23T00:20:11.490Z,52.67
2018-04-23T00:22:37.874Z,52.58
2018-04-23T00:25:04.274Z,52.56
2018-04-23T00:27:30.649Z,52.71
2018-04-23T00:29:56.973Z,52.41
2018-04-23T00:32:23.343Z,52.89
2018-04-23T00:34:49.804Z,52.76
2018-04-23T00:37:16.166Z,53.24
2018-04-23T00:39:42.654Z,53.11
2018-04-23T00:42:09.051Z,53.14
2018-04-23T00:44:35.410Z,53.44
2018-04-23T00:47:01.909Z,53.54
2018-04-23T00:49:28.297Z,53.81
2018-04-23T00:51:54.683Z,53.51
2018-04-23T00:54:21.043Z,53.70
2018-04-23T00:56:47.385Z,53.39
2018-04-23T00:59:13.771Z,53.21
2018-04-23T01:01:40.163Z,52.82
2018-04-23T01:04:06.550Z,52.87
2018-04-23T01:06:32.947Z,53.16
2018-04-23T01:08:59.311Z,53.09
2018-04-23T01:11:25.698Z,53.48
2018-04-23T01:13:52.107Z,53.44
2018-04-23T01:16:18.442Z,53.48
2018-04-23T01:18:44.912Z,53.64
2018-04-23T01:21:11.278Z,54.81
2018-04-23T01:23:37.685Z,54.48
2018-04-23T01:26:04.071Z,54.94
2018-04-23T01:28:30.423Z,54.72
2018-04-23T01:30:56.876Z,54.65
2018-04-23T01:33:23.243Z,55.37
2018-04-23T01:35:49.600Z,55.53
2018-04-23T01:38:15.998Z,55.46
2018-04-23T01:40:42.352Z,55.62
2018-04-23T01:43:08.742Z,55.27
2018-04-23T01:45:35.109Z,55.30
2018-04-23T01:48:01.465Z,55.58
2018-04-23T01:50:27.827Z,55.74
2018-04-23T01:52:54.205Z,55.81
2018-04-23T01:55:20.557Z,55.69
2018-04-23T01:57:46.897Z,56.26
2018-04-23T02:00:13.240Z,55.83
2018-04-23T02:02:39.619Z,55.58
2018-04-23T02:05:05.999Z,55.39
2018-04-23T02:07:32.369Z,55.16
2018-04-23T02:09:58.770Z,55.22
2018-04-23T02:12:25.160Z,55.15
2018-04-23T02:14:51.642Z,54.90
2018-04-23T02:17:18.046Z,55.32
2018-04-23T02:19:44.497Z,55.35
2018-04-23T02:22:10.874Z,55.32
2018-04-23T02:24:37.271Z,54.44
2018-04-23T02:27:03.690Z,54.02
2018-04-23T02:29:30.070Z,53.65
2018-04-23T02:31:56.458Z,53.45
2018-04-23T02:34:22.790Z,53.21
2018-04-23T02:36:49.248Z,53.10
2018-04-23T02:39:15.622Z,53.66
2018-04-23T02:41:42.012Z,53.79
2018-04-23T02:44:08.321Z,53.77
2018-04-23T02:46:34.704Z,54.56
2018-04-23T02:49:01.070Z,54.20
2018-04-23T02:51:27.398Z,54.80
2018-04-23T02:53:53.871Z,54.78
2018-04-23T02:56:20.246Z,54.23
2018-04-23T02:58:46.603Z,54.80
2018-04-23T03:01:13.070Z,55.40
2018-04-23T03:03:39.400Z,55.04
2018-04-23T03:06:05.762Z,55.00
2018-04-23T03:08:32.169Z,54.86
2018-04-23T03:10:58.599Z,55.09
2018-04-23T03:13:24.949Z,55.52
2018-04-23T03:15:51.466Z,55.76
2018-04-23T03:18:17.898Z,55.69
2018-04-23T03:20:44.331Z,55.97
2018-04-23T03:23:10.676Z,55.98
2018-04-23T03:25:37.031Z,55.94
2018-04-23T03:28:03.426Z,55.42
2018-04-23T03:30:29.806Z,55.98
2018-04-23T03:32:56.293Z,56.23
2018-04-23T03:35:22.684Z,55.82
2018-04-23T03:37:49.055Z,55.47
2018-04-23T03:40:15.409Z,55.94
2018-04-23T03:42:41.853Z,55.82
2018-04-23T03:45:08.233Z,55.84
2018-04-23T03:47:34.618Z,55.84
2018-04-23T03:50:00.985Z,55.83
2018-04-23T03:52:27.455Z,55.87
2018-04-23T03:54:53.838Z,55.86
2018-04-23T03:57:20.214Z,56.22
2018-04-23T03:59:46.581Z,56.48
2018-04-23T04:02:12.956Z,56.08
2018-04-23T04:04:39.335Z,56.40
2018-04-23T04:07:05.727Z,55.96
2018-04-23T04:09:32.109Z,55.99
2018-04-23T04:12:10.684Z,56.19
2018-04-23T04:14:49.334Z,55.72
2018-04-23T04:17:15.785Z,55.33
2018-04-23T04:19:42.243Z,55.15
2018-04-23T04:22:08.625Z,55.20
2018-04-23T04:24:34.994Z,56.13
2018-04-23T04:27:01.361Z,55.54
2018-04-23T04:29:27.819Z,54.76
2018-04-23T04:31:55.101Z,55.18
2018-04-23T04:34:21.543Z,54.42
2018-04-23T04:36:48.038Z,54.70
2018-04-23T04:39:14.388Z,54.65
2018-04-23T04:41:40.787Z,54.61
2018-04-23T04:44:07.174Z,54.67
2018-04-23T04:46:33.694Z,54.85
2018-04-23T04:49:00.082Z,55.15
2018-04-23T04:51:26.665Z,55.29
2018-04-23T04:53:52.968Z,54.42
2018-04-23T04:56:19.349Z,54.64
2018-04-23T04:58:45.812Z,54.38
2018-04-23T05:01:12.301Z,54.04
2018-04-23T05:03:38.902Z,53.94
2018-04-23T05:06:05.444Z,53.73
2018-04-23T05:08:32.185Z,55.46
2018-04-23T05:10:58.566Z,58.92
2018-04-23T05:13:25.029Z,58.30
2018-04-23T05:15:51.488Z,53.51
2018-04-23T05:18:17.890Z,52.22
2018-04-23T05:20:44.414Z,57.44
2018-04-23T05:23:10.947Z,57.34
2018-04-23T05:25:37.333Z,51.67
2018-04-23T05:28:03.761Z,51.26
2018-04-23T05:30:30.111Z,51.01
2018-04-23T05:32:56.453Z,50.77
2018-04-23T05:35:22.825Z,50.49
2018-04-23T05:37:49.198Z,50.09
2018-04-23T05:40:15.546Z,50.03
2018-04-23T05:42:42.150Z,49.95
2018-04-23T05:45:08.582Z,49.82
2018-04-23T05:47:35.151Z,49.77
2018-04-23T05:50:01.595Z,49.40
2018-04-23T05:52:28.005Z,49.41
2018-04-23T05:54:54.390Z,49.15
2018-04-23T05:57:20.935Z,48.86
2018-04-23T05:59:47.361Z,49.31
2018-04-23T06:02:13.946Z,48.69
2018-04-23T06:04:40.330Z,47.73
2018-04-23T06:07:06.701Z,47.74
2018-04-23T06:09:33.114Z,48.13
2018-04-23T06:11:59.628Z,48.19
2018-04-23T06:14:26.234Z,47.88
2018-04-23T06:16:52.778Z,47.77
2018-04-23T06:19:19.186Z,47.82
2018-04-23T06:21:45.548Z,48.28
2018-04-23T06:24:12.207Z,47.44
2018-04-23T06:26:38.580Z,49.66
2018-04-23T06:29:04.929Z,46.49
2018-04-23T06:31:31.311Z,46.43
2018-04-23T06:33:57.715Z,46.77
2018-04-23T06:36:24.297Z,51.12
2018-04-23T06:38:50.633Z,50.99
2018-04-23T06:41:17.018Z,48.69
2018-04-23T06:43:43.358Z,46.01
2018-04-23T06:46:09.826Z,47.76
2018-04-23T06:48:36.235Z,45.13
2018-04-23T06:51:02.605Z,44.36
2018-04-23T06:53:29.002Z,48.68
2018-04-23T06:55:55.437Z,49.05
2018-04-23T06:58:21.809Z,44.06
2018-04-23T07:00:48.195Z,43.91
2018-04-23T07:03:14.758Z,46.55
2018-04-23T07:05:41.113Z,44.69
2018-04-23T07:08:07.597Z,45.86
2018-04-23T07:10:34.125Z,45.81
2018-04-23T07:13:00.464Z,46.91
2018-04-23T07:15:26.840Z,43.59
2018-04-23T07:17:53.785Z,43.12
2018-04-23T07:20:20.224Z,46.57
2018-04-23T07:26:11.437Z,41.56
2018-04-23T07:28:37.910Z,41.19
2018-04-23T07:31:04.691Z,40.15
2018-04-23T07:33:31.056Z,42.62
2018-04-23T07:35:57.373Z,39.98
2018-04-23T07:38:23.856Z,42.77
2018-04-23T07:40:50.192Z,38.61
2018-04-23T07:43:16.577Z,39.57
2018-04-23T07:45:43.006Z,38.90
2018-04-23T07:48:09.754Z,37.99
2018-04-23T07:50:36.318Z,37.91
2018-04-23T07:53:02.747Z,39.81
2018-04-23T07:55:29.197Z,38.20
2018-04-23T07:57:55.514Z,40.36
2018-04-23T08:00:22.208Z,36.76
2018-04-23T08:02:48.557Z,37.59
2018-04-23T08:05:14.933Z,36.62
2018-04-23T08:07:41.256Z,37.65
2018-04-23T08:10:08.848Z,37.78
2018-04-23T08:12:35.357Z,41.21
2018-04-23T08:15:01.920Z,37.23
2018-04-23T08:17:28.257Z,34.77
2018-04-23T08:19:54.605Z,38.47
2018-04-23T08:22:21.012Z,35.27
2018-04-23T08:24:47.378Z,33.94
2018-04-23T08:27:13.801Z,38.23
2018-04-23T08:29:40.219Z,38.58
2018-04-23T08:32:06.665Z,37.99
2018-04-23T08:34:33.341Z,35.52
2018-04-23T08:36:59.738Z,35.61
2018-04-23T08:39:26.201Z,33.33
2018-04-23T08:41:52.617Z,36.75
2018-04-23T08:44:19.125Z,41.30
2018-04-23T08:46:45.525Z,32.97
2018-04-23T08:49:11.935Z,38.29
2018-04-23T08:51:38.325Z,40.73
2018-04-23T08:54:04.726Z,36.24
2018-04-23T08:56:31.109Z,35.51
2018-04-23T08:58:57.477Z,32.80
2018-04-23T09:01:23.922Z,37.41
2018-04-23T09:03:50.384Z,33.10
2018-04-23T09:06:16.873Z,37.17
2018-04-23T09:08:43.350Z,38.02
2018-04-23T09:11:09.702Z,35.08
2018-04-23T09:13:36.291Z,32.07
2018-04-23T09:16:02.756Z,38.99
2018-04-23T09:18:29.190Z,35.33
2018-04-23T09:20:55.584Z,32.63
2018-04-23T09:23:21.953Z,38.99
2018-04-23T09:25:48.417Z,31.26
2018-04-23T09:28:14.810Z,30.59
2018-04-23T09:30:41.386Z,33.99
2018-04-23T09:33:07.773Z,32.35
2018-04-23T09:35:34.737Z,34.93
2018-04-23T09:38:01.397Z,32.04
2018-04-23T09:40:27.774Z,37.22
2018-04-23T09:42:54.140Z,32.27
2018-04-23T09:45:21.118Z,30.81
2018-04-23T09:47:47.901Z,33.83
2018-04-23T09:50:14.410Z,31.62
2018-04-23T09:52:40.834Z,32.50
2018-04-23T09:55:07.205Z,31.77
2018-04-23T09:57:33.589Z,31.43
2018-04-23T10:00:00.133Z,30.72
2018-04-23T10:02:26.577Z,29.59
2018-04-23T10:04:52.921Z,34.28
2018-04-23T10:07:19.320Z,31.27
2018-04-23T10:09:45.694Z,33.40
2018-04-23T10:12:12.109Z,31.03
2018-04-23T10:14:38.453Z,29.76
2018-04-23T10:17:04.793Z,32.17
2018-04-23T10:19:31.229Z,37.61
2018-04-23T10:21:57.596Z,29.85
2018-04-23T10:24:23.969Z,29.73
2018-04-23T10:26:50.329Z,27.46
2018-04-23T10:29:16.784Z,36.88
2018-04-23T10:31:43.166Z,36.82
2018-04-23T10:34:09.521Z,34.78
2018-04-23T10:36:35.942Z,29.07
2018-04-23T10:39:02.502Z,27.41
2018-04-23T10:41:28.950Z,29.36
2018-04-23T10:43:55.317Z,28.41
2018-04-23T10:46:21.716Z,32.59
2018-04-23T10:48:48.078Z,28.88
2018-04-23T10:51:14.554Z,36.60
2018-04-23T10:53:40.990Z,34.11
2018-04-23T10:56:07.361Z,33.23
2018-04-23T10:58:33.782Z,37.33
2018-04-23T11:01:00.165Z,27.88
2018-04-23T11:03:26.608Z,37.35
2018-04-23T11:05:53.094Z,37.96
2018-04-23T11:08:19.693Z,28.72
2018-04-23T11:10:46.206Z,27.60
2018-04-23T11:13:12.797Z,34.65
2018-04-23T11:15:39.157Z,38.10
2018-04-23T11:18:05.523Z,26.78
2018-04-23T11:20:31.933Z,38.04
2018-04-23T11:22:58.325Z,35.55
2018-04-23T11:25:24.990Z,33.36
2018-04-23T11:27:51.470Z,31.35
2018-04-23T11:30:18.081Z,27.06
2018-04-23T11:32:44.771Z,31.15
2018-04-23T11:35:11.212Z,31.89
2018-04-23T11:37:37.687Z,34.89
2018-04-23T11:40:04.146Z,36.49
2018-04-23T11:42:30.705Z,28.82
2018-04-23T11:44:57.619Z,24.63
2018-04-23T11:47:24.310Z,27.91
2018-04-23T11:49:50.935Z,35.88
2018-04-23T11:52:17.330Z,22.85
2018-04-23T11:54:43.901Z,23.04
2018-04-23T11:57:10.265Z,23.30
2018-04-23T11:59:36.640Z,26.04
2018-04-23T12:02:03.284Z,23.83
2018-04-23T12:04:29.806Z,21.97
2018-04-23T12:06:56.376Z,23.41
2018-04-23T12:09:22.776Z,33.15
2018-04-23T12:11:49.161Z,22.62
2018-04-23T12:14:15.789Z,23.30
2018-04-23T12:16:42.188Z,21.50
2018-04-23T12:19:08.566Z,29.58
2018-04-23T12:21:35.005Z,20.69
2018-04-23T12:24:01.414Z,23.33
2018-04-23T12:26:27.827Z,36.15
2018-04-23T12:28:54.337Z,25.24
2018-04-23T12:31:20.769Z,33.41
2018-04-23T12:33:47.348Z,22.70
2018-04-23T12:36:13.730Z,30.87
2018-04-23T12:38:40.106Z,24.83
2018-04-23T12:41:06.505Z,24.70
2018-04-23T12:43:32.854Z,36.13
2018-04-23T12:45:59.323Z,23.58
2018-04-23T12:48:25.658Z,33.02
2018-04-23T12:50:52.158Z,26.41
2018-04-23T12:53:18.587Z,24.65
2018-04-23T12:55:44.984Z,26.22
2018-04-23T12:58:11.381Z,31.51
2018-04-23T13:00:38.075Z,22.42
2018-04-23T13:03:04.652Z,23.25
2018-04-23T13:05:31.041Z,21.63
2018-04-23T13:07:57.421Z,26.44
2018-04-23T13:10:23.953Z,22.43
2018-04-23T13:12:50.858Z,21.36
2018-04-23T13:15:17.332Z,21.10
2018-04-23T13:17:43.765Z,22.51
2018-04-23T13:20:10.146Z,22.29
2018-04-23T13:22:36.527Z,33.55
2018-04-23T13:25:02.970Z,22.11
2018-04-23T13:27:29.353Z,23.46
2018-04-23T13:29:55.830Z,21.19
2018-04-23T13:32:22.205Z,33.27
2018-04-23T13:34:48.799Z,33.70
2018-04-23T13:37:15.366Z,22.46
2018-04-23T13:39:41.930Z,22.55
2018-04-23T13:42:08.415Z,34.33
2018-04-23T13:44:35.030Z,26.78
2018-04-23T13:47:01.410Z,30.86
2018-04-23T13:49:27.809Z,32.27
2018-04-23T13:51:54.327Z,30.79
2018-04-23T13:54:20.882Z,38.03
2018-04-23T13:56:47.253Z,29.90
2018-04-23T13:59:13.602Z,30.84
2018-04-23T14:01:39.999Z,37.59
2018-04-23T14:04:06.500Z,29.49
2018-04-23T14:06:32.913Z,37.81
2018-04-23T14:08:59.483Z,25.34
2018-04-23T14:11:25.897Z,27.95
2018-04-23T14:13:52.306Z,25.07
2018-04-23T14:16:18.909Z,24.47
2018-04-23T14:18:45.304Z,27.09
2018-04-23T14:21:11.859Z,29.26
2018-04-23T14:23:38.221Z,34.85
2018-04-23T14:26:04.577Z,31.72
2018-04-23T14:28:31.180Z,29.60
2018-04-23T14:30:57.550Z,27.60
2018-04-23T14:33:24.008Z,32.36
2018-04-23T14:35:50.557Z,23.78
2018-04-23T14:38:16.909Z,32.55
2018-04-23T14:40:43.242Z,23.31
2018-04-23T14:43:09.598Z,35.91
2018-04-23T14:45:35.957Z,38.27
2018-04-23T14:48:02.387Z,25.01
2018-04-23T14:50:28.783Z,35.74
2018-04-23T14:52:55.257Z,25.77
2018-04-23T14:55:21.646Z,24.79
2018-04-23T14:57:48.080Z,25.99
2018-04-23T15:00:14.463Z,26.36
2018-04-23T15:02:40.933Z,35.24
2018-04-23T15:05:07.334Z,35.77
2018-04-23T15:07:33.759Z,32.21
2018-04-23T15:10:00.086Z,25.79
2018-04-23T15:12:26.521Z,37.11
2018-04-23T15:14:52.906Z,38.35
2018-04-23T15:17:19.413Z,35.79
2018-04-23T15:19:45.922Z,35.57
2018-04-23T15:22:12.405Z,35.89
2018-04-23T15:24:38.754Z,26.81
2018-04-23T15:27:05.248Z,27.41
2018-04-23T15:29:31.614Z,25.17
2018-04-23T15:31:58.025Z,33.43
2018-04-23T15:34:24.457Z,24.92
2018-04-23T15:36:50.876Z,35.96
2018-04-23T15:39:17.210Z,32.47
2018-04-23T15:41:43.583Z,26.00
2018-04-23T15:44:10.008Z,31.98
2018-04-23T15:46:36.511Z,34.00
2018-04-23T15:49:02.871Z,33.60
2018-04-23T15:51:29.279Z,34.27
2018-04-23T15:53:55.652Z,35.10
2018-04-23T15:56:22.001Z,37.55
2018-04-23T15:58:48.392Z,35.04
2018-04-23T16:01:14.982Z,37.31
2018-04-23T16:03:41.382Z,31.38
2018-04-23T16:06:07.959Z,34.13
2018-04-23T16:08:34.434Z,30.95
2018-04-23T16:11:00.817Z,37.00
2018-04-23T16:13:27.156Z,35.33
2018-04-23T16:15:53.613Z,31.65
2018-04-23T16:18:20.036Z,36.63
2018-04-23T16:20:46.480Z,35.94
2018-04-23T16:23:13.028Z,29.31
2018-04-23T16:25:39.448Z,29.72
2018-04-23T16:28:05.905Z,28.92
2018-04-23T16:30:32.300Z,34.15
2018-04-23T16:32:58.689Z,29.39
2018-04-23T16:35:25.086Z,29.61
2018-04-23T16:37:51.529Z,29.50
2018-04-23T16:40:17.885Z,30.19
2018-04-23T16:42:44.246Z,30.08
2018-04-23T16:45:10.712Z,30.46
2018-04-23T16:47:37.410Z,30.61
2018-04-23T16:50:03.839Z,31.03
2018-04-23T16:52:30.215Z,31.40
2018-04-23T16:54:56.568Z,32.59
2018-04-23T16:57:22.952Z,32.29
2018-04-23T16:59:49.445Z,32.41
2018-04-23T17:02:15.847Z,32.72
2018-04-23T17:04:42.236Z,33.09
2018-04-23T17:07:08.569Z,33.27
2018-04-23T17:09:34.957Z,33.66
2018-04-23T17:12:01.377Z,33.98
2018-04-23T17:14:27.745Z,35.71
2018-04-23T17:16:54.141Z,34.60
2018-04-23T17:19:20.573Z,35.09
2018-04-23T17:21:47.083Z,35.00
2018-04-23T17:24:13.631Z,34.60
2018-04-23T17:26:40.153Z,34.87
2018-04-23T17:29:07.140Z,34.68
2018-04-23T17:31:33.599Z,35.62
2018-04-23T17:34:00.005Z,35.03
2018-04-23T17:36:26.427Z,35.47
2018-04-23T17:38:52.838Z,35.74
2018-04-23T17:41:19.415Z,35.97
2018-04-23T17:43:45.813Z,36.55
2018-04-23T17:46:12.283Z,36.79
2018-04-23T17:48:38.809Z,36.30
2018-04-23T17:51:06.709Z,36.57
2018-04-23T17:53:33.378Z,36.86
2018-04-23T17:55:59.824Z,36.79
2018-04-23T17:58:26.213Z,36.62
2018-04-23T18:00:52.614Z,36.66
2018-04-23T18:03:19.355Z,38.54
2018-04-23T18:05:45.740Z,36.54
2018-04-23T18:08:12.772Z,36.95
2018-04-23T18:10:39.653Z,37.26
2018-04-23T18:13:06.061Z,37.02
2018-04-23T18:15:32.549Z,37.34
2018-04-23T18:17:58.878Z,37.10
2018-04-23T18:20:25.154Z,37.13
2018-04-23T18:22:51.641Z,37.13
2018-04-23T18:25:17.971Z,37.37
2018-04-23T18:27:44.277Z,36.57
2018-04-23T18:30:10.927Z,36.58
2018-04-23T18:32:37.291Z,36.98
2018-04-23T18:35:03.692Z,36.56
2018-04-23T18:37:30.123Z,36.86
2018-04-23T18:39:56.964Z,37.48
2018-04-23T18:42:23.456Z,37.59
2018-04-23T18:44:49.807Z,37.94
2018-04-23T18:47:16.110Z,38.66
2018-04-23T18:49:42.389Z,38.95
2018-04-23T18:52:08.774Z,39.13
2018-04-23T18:54:35.268Z,39.38
2018-04-23T18:57:01.613Z,40.05
2018-04-23T18:59:28.125Z,40.12
2018-04-23T19:01:54.503Z,40.42
2018-04-23T19:04:20.958Z,40.70
2018-04-23T19:06:47.377Z,40.44
2018-04-23T19:09:13.710Z,40.61
2018-04-23T19:11:40.101Z,40.90
2018-04-23T19:14:06.513Z,40.95
2018-04-23T19:16:32.841Z,41.20
2018-04-23T19:18:59.240Z,41.07
2018-04-23T19:21:25.574Z,41.04
2018-04-23T19:23:51.950Z,40.90
2018-04-23T19:26:18.293Z,40.69
2018-04-23T19:28:44.789Z,41.25
2018-04-23T19:31:11.099Z,41.29
2018-04-23T19:33:37.394Z,41.76
2018-04-23T19:36:03.776Z,41.32
2018-04-23T19:38:30.179Z,41.81
2018-04-23T19:40:56.562Z,41.65
2018-04-23T19:43:22.895Z,41.70
2018-04-23T19:45:49.181Z,41.72
2018-04-23T19:48:15.588Z,41.28
2018-04-23T19:50:42.025Z,41.45
2018-04-23T19:53:08.423Z,41.73
2018-04-23T19:55:34.851Z,41.43
2018-04-23T19:58:01.242Z,41.58
2018-04-23T20:00:27.547Z,41.69
2018-04-23T20:02:53.881Z,41.69
2018-04-23T20:05:20.284Z,41.98
2018-04-23T20:07:46.616Z,41.92
2018-04-23T20:10:12.947Z,41.57
2018-04-23T20:12:39.340Z,41.65
2018-04-23T20:15:05.685Z,41.16
2018-04-23T20:17:32.026Z,40.29
2018-04-23T20:19:58.331Z,40.29
2018-04-23T20:22:24.687Z,40.37
2018-04-23T20:24:51.119Z,40.69
2018-04-23T20:27:17.423Z,40.22
2018-04-23T20:29:43.792Z,40.73
2018-04-23T20:32:10.199Z,41.00
2018-04-23T20:34:36.626Z,40.74
2018-04-23T20:37:02.985Z,40.90
2018-04-23T20:39:29.981Z,41.24
2018-04-23T20:41:57.282Z,41.29
2018-04-23T20:44:24.749Z,41.15
2018-04-23T20:46:52.172Z,41.47
2018-04-23T20:49:19.118Z,41.63
2018-04-23T20:51:45.664Z,41.94
2018-04-23T20:54:12.088Z,42.14
2018-04-23T20:56:39.957Z,42.18
2018-04-23T20:59:06.472Z,42.27
2018-04-23T21:01:33.089Z,41.99
2018-04-23T21:03:59.638Z,42.14
2018-04-23T21:06:26.201Z,42.48
2018-04-23T21:08:52.975Z,41.96
2018-04-23T21:11:19.622Z,42.31
2018-04-23T21:13:46.198Z,42.29
2018-04-23T21:16:12.701Z,41.99
2018-04-23T21:18:39.431Z,41.93
2018-04-23T21:21:05.936Z,42.03
2018-04-23T21:23:32.367Z,42.08
2018-04-23T21:25:58.818Z,42.24
2018-04-23T21:28:25.185Z,42.41
2018-04-23T21:30:51.711Z,43.02
2018-04-23T21:33:18.043Z,44.79
2018-04-23T21:35:44.454Z,45.07
2018-04-23T21:38:10.863Z,49.65
2018-04-23T21:40:37.170Z,46.39
2018-04-23T21:43:03.576Z,46.08
2018-04-23T21:45:29.943Z,46.18
2018-04-23T21:47:56.288Z,46.37
2018-04-23T21:50:22.698Z,47.00
2018-04-23T21:52:49.173Z,46.66
2018-04-23T21:55:15.588Z,46.74
2018-04-23T21:57:41.919Z,46.74
2018-04-23T22:00:08.327Z,47.12
2018-04-23T22:02:34.806Z,47.32
2018-04-23T22:05:01.119Z,47.44
2018-04-23T22:07:27.534Z,47.54
2018-04-23T22:09:53.902Z,47.70
2018-04-23T22:12:20.246Z,47.90
2018-04-23T22:14:46.580Z,48.05
2018-04-23T22:17:12.960Z,48.48
2018-04-23T22:19:39.308Z,48.64
2018-04-23T22:22:05.685Z,48.25
2018-04-23T22:24:32.023Z,47.85
2018-04-23T22:26:58.344Z,46.21
2018-04-23T22:29:24.815Z,46.04
2018-04-23T22:31:51.363Z,45.54
2018-04-23T22:34:17.767Z,46.67
2018-04-23T22:36:44.154Z,46.21
2018-04-23T22:39:10.474Z,46.00
2018-04-23T22:41:42.999Z,46.39
2018-04-23T22:44:09.338Z,46.84
2018-04-23T22:46:35.742Z,46.67
2018-04-23T22:49:02.043Z,47.14
2018-04-23T22:51:28.442Z,47.21
2018-04-23T22:53:54.770Z,47.30
2018-04-23T22:56:21.135Z,47.46
2018-04-23T22:58:47.570Z,47.54
2018-04-23T23:01:14.034Z,47.63
2018-04-23T23:03:40.461Z,47.62
2018-04-23T23:06:07.045Z,48.19
2018-04-23T23:08:33.444Z,48.55
2018-04-23T23:10:59.847Z,48.77
2018-04-23T23:13:26.274Z,48.83
2018-04-23T23:15:52.642Z,49.20
2018-04-23T23:18:19.138Z,49.76
2018-04-23T23:20:45.570Z,49.92
2018-04-23T23:23:11.977Z,50.14
2018-04-23T23:25:38.406Z,50.65
2018-04-23T23:28:04.816Z,51.01
2018-04-23T23:30:31.156Z,50.95
2018-04-23T23:32:57.563Z,50.80
2018-04-23T23:35:23.973Z,51.26
2018-04-23T23:37:50.349Z,51.28
2018-04-23T23:40:16.886Z,51.04
2018-04-23T23:42:43.392Z,51.24
2018-04-23T23:45:09.803Z,51.48
2018-04-23T23:47:36.224Z,51.64
2018-04-23T23:50:03.080Z,51.05
2018-04-23T23:52:29.486Z,50.96
2018-04-23T23:54:55.917Z,51.10
2018-04-23T23:57:22.292Z,51.53
2018-04-23T23:59:48.641Z,51.76
